This is the latest recevied weather packets stored in our database for station/object OM2RC-6. If no packets are shown the sender has not sent any weather packets the latest 10 day(s).
| Time | Temp. | Humidity | Pressure | Rain* | Wind** | Luminosity | Snow |
|---|---|---|---|---|---|---|---|
| 1777554439 | 13.33° C | 36% | 1029.3 hPa | - | - | - | - |
| 1777553837 | 13.89° C | 36% | 1029.1 hPa | - | - | - | - |
| 1777553536 | 13.33° C | 37% | 1029.4 hPa | - | - | - | - |
| 1777553235 | 12.78° C | 36% | 1029.5 hPa | - | - | - | - |
| 1777552633 | 13.33° C | 36% | 1029.6 hPa | - | - | - | - |
| 1777552332 | 13.33° C | 37% | 1029.6 hPa | - | - | - | - |
| 1777552031 | 13.89° C | 35% | 1029.7 hPa | - | - | - | - |
| 1777551730 | 13.33° C | 37% | 1029.7 hPa | - | - | - | - |
| 1777551430 | 13.33° C | 36% | 1029.6 hPa | - | - | - | - |
| 1777550828 | 12.78° C | 38% | 1029.8 hPa | - | - | - | - |
| 1777550527 | 12.78° C | 37% | 1029.9 hPa | - | - | - | - |
| 1777550226 | 13.89° C | 35% | 1029.9 hPa | - | - | - | - |
| 1777549624 | 12.22° C | 38% | 1030 hPa | - | - | - | - |
| 1777549323 | 12.22° C | 38% | 1030 hPa | - | - | - | - |
| 1777549022 | 12.22° C | 37% | 1030.1 hPa | - | - | - | - |
| 1777548720 | 12.78° C | 36% | 1030.1 hPa | - | - | - | - |
| 1777547815 | 12.78° C | 36% | 1030.2 hPa | - | - | - | - |
| 1777547513 | 12.78° C | 35% | 1030.3 hPa | - | - | - | - |
| 1777547212 | 12.22° C | 37% | 1030.4 hPa | - | - | - | - |
| 1777546911 | 13.33° C | 36% | 1030.4 hPa | - | - | - | - |
| 1777546610 | 11.67° C | 38% | 1030.4 hPa | - | - | - | - |
| 1777546305 | 11.67° C | 37% | 1030.4 hPa | - | - | - | - |
| 1777546004 | 11.67° C | 37% | 1030.5 hPa | - | - | - | - |
| 1777545703 | 11.11° C | 39% | 1030.4 hPa | - | - | - | - |
| 1777545400 | 11.67° C | 39% | 1030.7 hPa | - | - | - | - |
* Rain since midnight (hover to see other rain measurements)
** Current wind speed in m/s (hover to see current wind gust speed)